Webster, South Dakota
Current Conditions -  °F | °C
As of 9:53 AM on Wednesday 22 Oct 2014 (Local Time) from KATY Reporting Station
Clear Clear  
Wind Chill: 55°   Ceiling: Unl
Heat Index: 55°   Visibility: 10mi
Dew Point: 45°   Wind: 18mph
Humidity: 69%   Direction: 170°S
Pressure: 29.91"   Gusts: 32mph
Location:  45.33°N, 97.52°W
Report Text: KATY 221453Z AUTO 17016G28KT 10SM CLR 13/07 A2991 RMK AO2 PK WND 17028/1447 SLP129 T01280072 50004
Loading
Personal Weather Stations






























Interactive Weather Map
Tropical Storm Tracking
New forecast layout! Learn more

10-Day Weather Forecast

Advertisements
Track Severe Weather on mobile